Главная страница
METAR-TAF:

METAR-TAF

Аэропорты :

Ивало, Финляндия

широта: 68-37N, долгота: 027-25E, высота над уровнем моря: 147 м

Текущие метеонаблюдения

Эта сводка был подготовлена 15 минут назад, в 06:20 UTC
Ветер 4 Узел от северно-северо-западный, изменяющийся между западно-северо-западный и северный
Температура 11°C
Влажность 94%
Давление 1007 hPa
Видимость 10 км и более
Сплошная облачность на высоте 800 фута
небольшие ливневые дожди

METAR: EFIV 210620Z AUTO 33004KT 290V010 9999 -SHRA OVC008 11/10 Q1007

Время: 09:35 (06:35 UTC)

Прогноз

Эта сводка был подготовлена 25 часа и 11 минут назад, в 05:24 UTC
Прогноз действительный с 20-го 05 UTC до 20-го 07 UTC
Ветер 9 Узел от северо-северо-восточный
Видимость 10 км и более
Сплошная облачность на высоте 4800 фута
небольшой дождь
временами
С 20-го 05 UTC до 20-го 07 UTC
Видимость: 3000 м
Рассеянная облачность на высоте 200 фута
Морось

TAF: EFIV 200524Z 2005/2007 02009KT 9999 -RA OVC048 TEMPO 2005/2007 3000 DZ BKN002

Метеонаблюдения и прогнозы для более 4000 аэропортов (сводки METAR и TAF).

Имеющиеся станции представлены на карте желтыми и красными точками.

Чтобы увидеть название станции, наведите на нее мышь.

Затем щелкните, чтобы увидеть метеонаблюдения и метеопрогнозы.

Управление картой: чтобы увеличить масштаб, щелкните зеленые кнопки с черным крестиком; чтобы уменьшить масштаб, щелкните зеленую кнопку с тире; для просмотра соседних карт щелкайте зеленые стрелки.


METAR-TAF: